createdAt,value
2022-09-29T00:01:47.997Z,44.53
2022-09-29T00:04:17.053Z,22.67
2022-09-29T00:06:45.954Z,27.17
2022-09-29T00:09:14.874Z,18.27
2022-09-29T00:11:45.339Z,18.37
2022-09-29T00:14:14.520Z,28.03
2022-09-29T00:16:43.523Z,18.20
2022-09-29T00:19:12.506Z,13.60
2022-09-29T00:21:41.385Z,17.90
2022-09-29T00:24:10.539Z,23.03
2022-09-29T00:26:39.624Z,19.63
2022-09-29T00:29:12.498Z,24.60
2022-09-29T00:31:41.442Z,21.77
2022-09-29T00:34:10.466Z,23.70
2022-09-29T00:36:39.442Z,19.80
2022-09-29T00:39:08.468Z,17.27
2022-09-29T00:41:39.505Z,17.50
2022-09-29T00:44:50.478Z,22.80
2022-09-29T00:47:21.080Z,17.63
2022-09-29T00:49:54.325Z,14.80
2022-09-29T00:52:27.180Z,19.23
2022-09-29T00:54:59.818Z,17.33
2022-09-29T00:57:37.797Z,18.57
2022-09-29T01:00:11.699Z,15.33
2022-09-29T01:02:43.838Z,24.13
2022-09-29T01:05:21.437Z,42.70
2022-09-29T01:07:51.058Z,25.80
2022-09-29T01:10:21.034Z,19.33
2022-09-29T01:12:50.729Z,16.90
2022-09-29T01:15:23.658Z,16.10
2022-09-29T01:17:52.650Z,21.47
2022-09-29T01:20:24.705Z,15.97
2022-09-29T01:23:30.570Z,15.23
2022-09-29T01:26:25.856Z,17.90
2022-09-29T01:29:21.538Z,23.73
2022-09-29T01:31:59.178Z,57.80
2022-09-29T01:34:37.326Z,19.60
2022-09-29T01:37:21.175Z,16.87
2022-09-29T01:39:56.527Z,17.37
2022-09-29T01:42:32.157Z,17.60
2022-09-29T01:45:09.718Z,22.50
2022-09-29T01:47:44.030Z,19.00
2022-09-29T01:50:18.578Z,18.70
2022-09-29T01:52:51.658Z,17.60
2022-09-29T01:55:23.585Z,17.03
2022-09-29T01:57:55.046Z,19.90
2022-09-29T02:00:24.917Z,17.50
2022-09-29T02:03:00.465Z,20.00
2022-09-29T02:05:35.107Z,16.83
2022-09-29T02:08:08.658Z,59.40
2022-09-29T02:13:16.987Z,113.93
2022-09-29T02:15:48.905Z,16.40
2022-09-29T02:18:25.566Z,12.30
2022-09-29T02:20:56.146Z,22.10
2022-09-29T02:23:25.193Z,21.33
2022-09-29T02:25:56.309Z,25.50
2022-09-29T02:28:26.107Z,18.00
2022-09-29T02:30:55.118Z,13.50
2022-09-29T02:33:27.370Z,29.03
2022-09-29T02:36:07.406Z,20.70
2022-09-29T02:38:45.519Z,20.03
2022-09-29T02:41:29.719Z,17.07
2022-09-29T02:44:27.340Z,13.00
2022-09-29T02:47:13.034Z,25.07
2022-09-29T02:50:02.065Z,14.77
2022-09-29T02:52:40.298Z,33.73
2022-09-29T02:55:18.327Z,21.57
2022-09-29T02:57:59.018Z,77.10
2022-09-29T03:00:29.896Z,26.63
2022-09-29T03:02:58.889Z,23.50
2022-09-29T03:05:29.882Z,20.87
2022-09-29T03:07:59.207Z,110.93
2022-09-29T03:10:30.201Z,16.83
2022-09-29T03:12:59.557Z,20.33
2022-09-29T03:15:28.759Z,84.13
2022-09-29T03:17:58.646Z,60.77
2022-09-29T03:20:29.206Z,34.73
2022-09-29T03:22:58.695Z,26.67
2022-09-29T03:25:27.714Z,55.57
2022-09-29T03:27:56.372Z,14.57
2022-09-29T03:30:25.306Z,17.83
2022-09-29T03:32:54.218Z,47.43
2022-09-29T03:35:23.395Z,43.40
2022-09-29T03:37:53.826Z,16.83
2022-09-29T03:40:22.779Z,18.30
2022-09-29T03:42:51.753Z,17.87
2022-09-29T03:45:20.806Z,16.27
2022-09-29T03:47:49.766Z,16.03
2022-09-29T03:50:18.803Z,14.37
2022-09-29T03:52:47.718Z,26.60
2022-09-29T03:55:18.373Z,30.53
2022-09-29T03:57:48.270Z,17.27
2022-09-29T04:00:17.672Z,19.70
2022-09-29T04:02:46.619Z,29.73
2022-09-29T04:05:16.198Z,18.83
2022-09-29T04:07:45.225Z,30.43
2022-09-29T04:10:14.119Z,18.87
2022-09-29T04:12:44.505Z,18.30
2022-09-29T04:15:13.649Z,12.40
2022-09-29T04:17:42.618Z,17.93
2022-09-29T04:20:11.778Z,20.73
2022-09-29T04:22:40.741Z,29.07
2022-09-29T04:25:10.356Z,18.43
2022-09-29T04:27:39.358Z,17.40
2022-09-29T04:30:11.254Z,30.40
2022-09-29T04:32:40.258Z,17.70
2022-09-29T04:35:10.026Z,15.80
2022-09-29T04:37:39.549Z,15.50
2022-09-29T04:40:09.185Z,14.47
2022-09-29T04:42:38.134Z,15.20
2022-09-29T04:45:09.446Z,21.23
2022-09-29T04:47:38.366Z,15.67
2022-09-29T04:50:08.303Z,13.43
2022-09-29T04:52:37.224Z,19.33
2022-09-29T04:55:06.946Z,14.80
2022-09-29T04:57:35.798Z,24.73
2022-09-29T05:00:05.259Z,13.93
2022-09-29T05:02:35.810Z,21.50
2022-09-29T05:05:06.398Z,16.57
2022-09-29T05:07:37.051Z,15.67
2022-09-29T05:10:07.023Z,19.90
2022-09-29T05:12:36.061Z,14.90
2022-09-29T05:15:06.598Z,15.30
2022-09-29T05:17:37.155Z,17.00
2022-09-29T05:20:06.770Z,19.27
2022-09-29T05:22:35.659Z,15.23
2022-09-29T05:25:04.644Z,11.87
2022-09-29T05:27:33.594Z,25.00
2022-09-29T05:30:02.681Z,14.97
2022-09-29T05:32:31.906Z,15.30
2022-09-29T05:35:04.019Z,18.30
2022-09-29T05:37:32.986Z,17.67
2022-09-29T05:40:02.180Z,13.97
2022-09-29T05:42:31.758Z,16.50
2022-09-29T05:45:00.778Z,15.30
2022-09-29T05:47:29.741Z,17.43
2022-09-29T05:49:58.853Z,14.07
2022-09-29T05:52:29.166Z,12.20
2022-09-29T05:54:58.146Z,18.13
2022-09-29T05:57:27.146Z,14.43
2022-09-29T05:59:56.359Z,15.80
2022-09-29T06:02:25.326Z,18.13
2022-09-29T06:04:54.629Z,12.93
2022-09-29T06:07:23.639Z,14.83
2022-09-29T06:09:54.267Z,14.07
2022-09-29T06:12:23.567Z,15.47
2022-09-29T06:14:52.566Z,13.67
2022-09-29T06:17:21.497Z,14.47
2022-09-29T06:19:50.547Z,13.90
2022-09-29T06:22:19.760Z,14.47
2022-09-29T06:24:48.767Z,14.87
2022-09-29T06:27:19.112Z,14.37
2022-09-29T06:29:48.106Z,12.60
2022-09-29T06:32:17.186Z,13.77
2022-09-29T06:35:03.727Z,13.73
2022-09-29T06:37:39.940Z,12.50
2022-09-29T06:40:11.355Z,14.17
2022-09-29T06:42:42.178Z,12.70
2022-09-29T06:45:12.897Z,15.17
2022-09-29T06:47:41.866Z,13.57
2022-09-29T06:50:11.797Z,12.30
2022-09-29T06:52:40.871Z,13.33
2022-09-29T06:55:10.370Z,12.77
2022-09-29T06:57:41.278Z,12.13
2022-09-29T07:00:11.558Z,11.23
2022-09-29T07:02:40.786Z,11.73
2022-09-29T07:05:10.470Z,12.80
2022-09-29T07:07:39.398Z,11.57
2022-09-29T07:10:09.587Z,10.97
2022-09-29T07:12:38.628Z,10.23
2022-09-29T07:15:10.345Z,11.30
2022-09-29T07:17:39.300Z,10.97
2022-09-29T07:20:08.901Z,11.23
2022-09-29T07:22:38.066Z,12.43
2022-09-29T07:25:07.800Z,13.17
2022-09-29T07:27:36.683Z,11.13
2022-09-29T07:30:08.449Z,11.73
2022-09-29T07:32:37.437Z,14.10
2022-09-29T07:35:07.547Z,13.73
2022-09-29T07:37:36.597Z,13.23
2022-09-29T07:40:06.246Z,11.60
2022-09-29T07:42:35.326Z,13.60
2022-09-29T07:45:04.260Z,12.20
2022-09-29T07:47:34.818Z,10.53
2022-09-29T07:50:03.646Z,11.90
2022-09-29T07:52:32.576Z,13.17
2022-09-29T07:55:01.481Z,12.07
2022-09-29T07:57:30.446Z,11.80
2022-09-29T07:59:59.998Z,12.23
2022-09-29T08:02:29.012Z,12.13
2022-09-29T08:05:03.258Z,13.13
2022-09-29T08:07:34.426Z,12.47
2022-09-29T08:10:14.652Z,13.57
2022-09-29T08:12:45.561Z,13.57
2022-09-29T08:15:14.944Z,12.50
2022-09-29T08:17:43.937Z,11.80
2022-09-29T08:20:14.477Z,13.27
2022-09-29T08:22:43.517Z,12.17
2022-09-29T08:25:12.566Z,10.83
2022-09-29T08:27:50.751Z,11.00
2022-09-29T08:30:23.166Z,10.93
2022-09-29T08:32:55.104Z,10.00
2022-09-29T08:35:25.807Z,10.23
2022-09-29T08:37:57.947Z,9.73
2022-09-29T08:40:30.305Z,9.53
2022-09-29T08:43:05.419Z,9.97
2022-09-29T08:45:41.185Z,10.37
2022-09-29T08:48:22.941Z,9.20
2022-09-29T08:50:59.246Z,8.47
2022-09-29T08:53:30.818Z,8.63
2022-09-29T08:56:02.662Z,9.63
2022-09-29T08:58:32.699Z,9.40
2022-09-29T09:01:11.408Z,8.53
2022-09-29T09:04:13.095Z,9.43
2022-09-29T09:06:58.899Z,9.30
2022-09-29T09:09:50.059Z,9.43
2022-09-29T09:12:39.966Z,10.20
2022-09-29T09:15:24.259Z,9.60
2022-09-29T09:18:34.101Z,9.83
2022-09-29T09:21:08.866Z,9.17
2022-09-29T09:23:52.605Z,10.07
2022-09-29T09:26:38.635Z,10.27
2022-09-29T09:29:21.051Z,9.53
2022-09-29T09:32:03.345Z,10.90
2022-09-29T09:34:44.375Z,11.50
2022-09-29T09:37:18.838Z,9.77
2022-09-29T09:39:55.600Z,9.83
2022-09-29T09:42:28.466Z,10.13
2022-09-29T09:45:02.619Z,9.73
2022-09-29T09:47:35.887Z,10.17
2022-09-29T09:50:15.727Z,9.03
2022-09-29T09:52:50.507Z,9.90
2022-09-29T09:55:24.477Z,11.10
2022-09-29T09:58:12.363Z,12.23
2022-09-29T10:00:44.578Z,9.47
2022-09-29T10:03:14.906Z,9.50
2022-09-29T10:05:46.194Z,9.57
2022-09-29T10:08:20.180Z,12.03
2022-09-29T10:10:57.962Z,41.43
2022-09-29T10:13:29.828Z,14.13
2022-09-29T10:16:03.075Z,10.77
2022-09-29T10:18:37.953Z,12.87
2022-09-29T10:21:21.106Z,11.50
2022-09-29T10:23:53.555Z,10.47
2022-09-29T10:26:27.355Z,10.57
2022-09-29T10:28:59.956Z,10.17
2022-09-29T10:31:30.919Z,9.90
2022-09-29T10:34:02.902Z,9.33
2022-09-29T10:36:35.577Z,9.60
2022-09-29T10:39:04.586Z,9.93
2022-09-29T10:41:54.845Z,10.47
2022-09-29T10:44:23.918Z,8.00
2022-09-29T10:46:55.267Z,9.03
2022-09-29T10:49:27.781Z,9.70
2022-09-29T10:52:01.266Z,9.03
2022-09-29T10:54:34.126Z,8.87
2022-09-29T10:57:15.757Z,9.27
2022-09-29T10:59:50.177Z,8.70
2022-09-29T11:02:25.461Z,8.50
2022-09-29T11:04:57.737Z,8.63
2022-09-29T11:07:27.188Z,8.70
2022-09-29T11:09:56.599Z,8.57
2022-09-29T11:12:33.499Z,9.27
2022-09-29T11:15:03.288Z,9.27
2022-09-29T11:17:38.590Z,9.93
2022-09-29T11:20:12.866Z,8.90
2022-09-29T11:23:17.037Z,8.60
2022-09-29T11:26:21.346Z,8.73
2022-09-29T11:29:10.859Z,9.47
2022-09-29T11:32:07.158Z,9.90
2022-09-29T11:34:55.778Z,9.37
2022-09-29T11:37:40.030Z,9.77
2022-09-29T11:40:16.678Z,10.40
2022-09-29T11:43:06.920Z,10.77
2022-09-29T11:45:45.258Z,10.60
2022-09-29T11:48:43.346Z,8.37
2022-09-29T11:51:22.140Z,8.50
2022-09-29T11:54:06.549Z,8.17
2022-09-29T11:56:45.047Z,8.70
2022-09-29T11:59:29.905Z,7.80
2022-09-29T12:02:23.145Z,7.07
2022-09-29T12:05:01.480Z,8.63
2022-09-29T12:07:43.767Z,8.20
2022-09-29T12:10:32.159Z,8.13
2022-09-29T12:13:10.338Z,6.80
2022-09-29T12:15:49.141Z,7.40
2022-09-29T12:18:24.370Z,7.40
2022-09-29T12:20:56.279Z,6.03
2022-09-29T12:23:28.039Z,10.83
2022-09-29T12:26:05.048Z,5.93
2022-09-29T12:28:41.839Z,5.13
2022-09-29T12:31:16.767Z,6.07
2022-09-29T12:33:52.041Z,5.63
2022-09-29T12:36:50.671Z,5.67
2022-09-29T12:39:34.728Z,5.77
2022-09-29T12:42:22.827Z,4.60
2022-09-29T12:44:57.355Z,4.73
2022-09-29T12:47:40.961Z,5.03
2022-09-29T12:50:19.540Z,4.13
2022-09-29T12:52:55.772Z,4.70
2022-09-29T12:55:33.379Z,4.00
2022-09-29T12:58:07.867Z,3.97
2022-09-29T13:00:39.664Z,17.60
2022-09-29T13:03:26.166Z,4.00
2022-09-29T13:06:30.104Z,4.03
2022-09-29T13:09:11.262Z,4.20
2022-09-29T13:12:11.818Z,3.80
2022-09-29T13:15:02.360Z,3.50
2022-09-29T13:17:47.002Z,3.80
2022-09-29T13:20:52.280Z,3.50
2022-09-29T13:23:42.615Z,3.50
2022-09-29T13:26:29.628Z,6.30
2022-09-29T13:29:03.367Z,3.67
2022-09-29T13:31:39.449Z,3.67
2022-09-29T13:34:08.840Z,4.20
2022-09-29T13:36:43.666Z,3.50
2022-09-29T13:39:25.122Z,5.23
2022-09-29T13:41:56.686Z,4.27
2022-09-29T13:44:28.200Z,4.00
2022-09-29T13:46:57.898Z,3.60
2022-09-29T13:49:32.746Z,4.33
2022-09-29T13:52:03.907Z,4.70
2022-09-29T13:54:51.846Z,4.30
2022-09-29T13:57:27.514Z,4.50
2022-09-29T14:00:26.428Z,5.20
2022-09-29T14:03:08.358Z,3.77
2022-09-29T14:06:36.222Z,4.43
2022-09-29T14:09:04.505Z,5.27
2022-09-29T14:11:38.748Z,5.23
2022-09-29T14:14:10.260Z,5.10
2022-09-29T14:16:54.247Z,5.40
2022-09-29T14:19:49.842Z,6.43
2022-09-29T14:22:57.500Z,5.90
2022-09-29T14:25:49.927Z,5.70
2022-09-29T14:28:31.864Z,5.50
2022-09-29T14:31:04.653Z,6.10
2022-09-29T14:33:39.469Z,5.60
2022-09-29T14:36:15.008Z,5.63
2022-09-29T14:38:57.825Z,6.03
2022-09-29T14:41:43.446Z,6.63
2022-09-29T14:44:19.801Z,8.57
2022-09-29T14:47:33.486Z,7.27
2022-09-29T14:50:43.678Z,6.27
2022-09-29T14:53:29.594Z,8.20
2022-09-29T14:56:11.238Z,8.30
2022-09-29T14:58:59.609Z,8.67
2022-09-29T15:01:31.478Z,8.57
2022-09-29T15:04:09.517Z,8.97
2022-09-29T15:06:48.152Z,8.03
2022-09-29T15:09:20.909Z,9.90
2022-09-29T15:11:53.126Z,7.47
2022-09-29T15:14:27.056Z,9.60
2022-09-29T15:17:09.867Z,8.17
2022-09-29T15:19:55.828Z,8.37
2022-09-29T15:22:53.183Z,9.40
2022-09-29T15:25:30.142Z,8.73
2022-09-29T15:28:03.695Z,9.43
2022-09-29T15:30:33.427Z,9.50
2022-09-29T15:33:24.253Z,8.43
2022-09-29T15:35:57.800Z,9.07
2022-09-29T15:38:36.784Z,10.50
2022-09-29T15:41:15.107Z,9.00
2022-09-29T15:43:47.339Z,10.87
2022-09-29T15:46:20.124Z,9.43
2022-09-29T15:49:16.024Z,11.83
2022-09-29T15:51:58.598Z,9.27
2022-09-29T15:54:31.906Z,10.73
2022-09-29T15:57:18.114Z,9.77
2022-09-29T15:59:51.800Z,11.50
2022-09-29T16:02:30.828Z,14.23
2022-09-29T16:05:04.491Z,10.30
2022-09-29T16:07:36.978Z,12.00
2022-09-29T16:10:10.288Z,12.53
2022-09-29T16:12:47.797Z,13.47
2022-09-29T16:15:23.466Z,12.13
2022-09-29T16:17:52.837Z,15.47
2022-09-29T16:20:28.464Z,10.57
2022-09-29T16:22:57.642Z,11.83
2022-09-29T16:25:28.738Z,12.67
2022-09-29T16:27:59.520Z,14.10
2022-09-29T16:30:32.120Z,15.20
2022-09-29T16:33:16.115Z,13.27
2022-09-29T16:35:51.120Z,13.40
2022-09-29T16:38:26.516Z,11.97
2022-09-29T16:40:57.358Z,15.00
2022-09-29T16:43:30.941Z,13.77
2022-09-29T16:46:03.304Z,12.43
2022-09-29T16:48:38.938Z,14.60
2022-09-29T16:51:37.675Z,16.40
2022-09-29T16:54:03.903Z,14.93
2022-09-29T16:56:33.976Z,15.53
2022-09-29T16:59:13.526Z,15.70
2022-09-29T17:01:43.645Z,16.30
2022-09-29T17:04:13.641Z,17.50
2022-09-29T17:06:47.844Z,16.80
2022-09-29T17:09:22.495Z,16.27
2022-09-29T17:11:51.639Z,16.30
2022-09-29T17:14:21.972Z,17.17
2022-09-29T17:16:52.007Z,19.83
2022-09-29T17:19:22.612Z,19.97
2022-09-29T17:21:54.499Z,19.30
2022-09-29T17:24:23.577Z,19.27
2022-09-29T17:27:09.717Z,21.53
2022-09-29T17:29:38.618Z,20.53
2022-09-29T17:32:14.020Z,23.43
2022-09-29T17:34:42.907Z,24.43
2022-09-29T17:37:19.760Z,23.77
2022-09-29T17:39:48.973Z,23.50
2022-09-29T17:42:17.978Z,29.37
2022-09-29T17:44:47.126Z,25.33
2022-09-29T17:47:27.801Z,24.13
2022-09-29T17:49:58.061Z,24.87
2022-09-29T17:52:28.537Z,22.53
2022-09-29T17:54:57.388Z,27.60
2022-09-29T17:57:29.575Z,26.53
2022-09-29T18:00:00.458Z,26.47
2022-09-29T18:02:29.891Z,25.80
2022-09-29T18:04:58.766Z,32.73
2022-09-29T18:07:29.287Z,29.00
2022-09-29T18:09:58.649Z,26.63
2022-09-29T18:12:27.903Z,26.83
2022-09-29T18:14:56.890Z,25.67
2022-09-29T18:17:26.138Z,26.60
2022-09-29T18:19:55.299Z,30.53
2022-09-29T18:22:25.220Z,23.70
2022-09-29T18:24:56.100Z,25.67
2022-09-29T18:27:25.484Z,26.93
2022-09-29T18:29:54.798Z,28.23
2022-09-29T18:32:23.680Z,29.00
2022-09-29T18:34:53.941Z,28.00
2022-09-29T18:37:23.545Z,24.93
2022-09-29T18:39:52.661Z,23.20
2022-09-29T18:42:23.016Z,27.20
2022-09-29T18:44:52.754Z,26.23
2022-09-29T18:47:22.088Z,32.10
2022-09-29T18:49:51.118Z,26.33
2022-09-29T18:52:20.059Z,30.53
2022-09-29T18:54:49.260Z,31.70
2022-09-29T18:57:19.066Z,31.83
2022-09-29T18:59:53.727Z,30.73
2022-09-29T19:02:23.342Z,34.23
2022-09-29T19:04:53.891Z,26.87
2022-09-29T19:07:23.007Z,26.20
2022-09-29T19:09:52.301Z,33.80
2022-09-29T19:12:27.434Z,35.23
2022-09-29T19:15:00.682Z,31.57
2022-09-29T19:17:31.446Z,34.87
2022-09-29T19:20:01.155Z,44.60
2022-09-29T19:22:38.459Z,34.57
2022-09-29T19:25:08.892Z,34.83
2022-09-29T19:27:38.454Z,34.67
2022-09-29T19:30:09.978Z,44.00
2022-09-29T19:32:39.698Z,42.17
2022-09-29T19:35:15.095Z,33.40
2022-09-29T19:37:44.667Z,36.93
2022-09-29T19:40:18.947Z,41.87
2022-09-29T19:42:48.809Z,32.47
2022-09-29T19:45:19.338Z,30.27
2022-09-29T19:47:51.426Z,29.87
2022-09-29T19:50:37.674Z,34.77
2022-09-29T19:53:06.942Z,25.50
2022-09-29T19:55:40.528Z,36.90
2022-09-29T19:58:09.925Z,33.33
2022-09-29T20:00:41.867Z,36.20
2022-09-29T20:03:11.629Z,45.30
2022-09-29T20:05:40.859Z,30.80
2022-09-29T20:08:10.251Z,32.53
2022-09-29T20:10:42.088Z,28.53
2022-09-29T20:13:15.338Z,24.73
2022-09-29T20:15:47.360Z,26.83
2022-09-29T20:18:16.905Z,26.53
2022-09-29T20:20:45.799Z,29.40
2022-09-29T20:23:14.759Z,33.70
2022-09-29T20:25:43.915Z,30.73
2022-09-29T20:28:15.613Z,33.93
2022-09-29T20:30:46.126Z,39.43
2022-09-29T20:33:15.089Z,40.53
2022-09-29T20:35:43.998Z,35.57
2022-09-29T20:38:13.396Z,37.63
2022-09-29T20:40:42.267Z,41.03
2022-09-29T20:43:12.391Z,42.43
2022-09-29T20:45:41.446Z,34.60
2022-09-29T20:48:12.126Z,42.00
2022-09-29T20:50:41.107Z,41.20
2022-09-29T20:53:10.026Z,53.37
2022-09-29T20:55:38.994Z,37.77
2022-09-29T20:58:07.866Z,45.20
2022-09-29T21:00:36.921Z,48.53
2022-09-29T21:03:06.357Z,54.63
2022-09-29T21:05:36.811Z,38.90
2022-09-29T21:08:06.959Z,48.40
2022-09-29T21:10:35.918Z,32.63
2022-09-29T21:13:04.946Z,47.97
2022-09-29T21:15:36.385Z,63.67
2022-09-29T21:18:05.348Z,47.20
2022-09-29T21:20:35.699Z,38.00
2022-09-29T21:23:04.566Z,55.93
2022-09-29T21:25:33.466Z,49.37
2022-09-29T21:28:02.558Z,54.40
2022-09-29T21:30:31.517Z,45.13
2022-09-29T21:33:00.666Z,41.43
2022-09-29T21:35:30.506Z,67.43
2022-09-29T21:38:00.806Z,47.40
2022-09-29T21:40:29.695Z,35.10
2022-09-29T21:42:58.638Z,48.00
2022-09-29T21:45:27.495Z,43.43
2022-09-29T21:48:12.105Z,45.20
2022-09-29T21:50:41.094Z,47.60
2022-09-29T21:53:12.177Z,48.97
2022-09-29T21:55:43.418Z,46.80
2022-09-29T21:58:12.419Z,54.83
2022-09-29T22:00:41.346Z,41.10
2022-09-29T22:03:10.319Z,50.37
2022-09-29T22:05:43.465Z,61.77
2022-09-29T22:08:13.895Z,49.03
2022-09-29T22:10:42.788Z,43.20
2022-09-29T22:13:11.826Z,41.60
2022-09-29T22:15:40.790Z,51.17
2022-09-29T22:18:10.387Z,31.03
2022-09-29T22:20:40.137Z,33.77
2022-09-29T22:23:09.393Z,34.97
2022-09-29T22:25:44.639Z,39.90
2022-09-29T22:28:14.174Z,48.10
2022-09-29T22:30:43.301Z,27.17
2022-09-29T22:33:12.936Z,37.60
2022-09-29T22:35:42.654Z,28.87
2022-09-29T22:38:12.518Z,32.93
2022-09-29T22:40:42.875Z,27.00
2022-09-29T22:43:11.886Z,27.43
2022-09-29T22:45:40.758Z,37.63
2022-09-29T22:48:10.984Z,38.03
2022-09-29T22:50:39.882Z,42.37
2022-09-29T22:53:08.844Z,43.43
2022-09-29T22:55:38.198Z,36.93
2022-09-29T22:58:08.607Z,39.23
2022-09-29T23:00:37.823Z,38.97
2022-09-29T23:03:07.086Z,38.63
2022-09-29T23:05:36.557Z,48.00
2022-09-29T23:08:05.579Z,50.43
2022-09-29T23:10:36.580Z,64.23
2022-09-29T23:13:07.126Z,48.77
2022-09-29T23:15:39.206Z,39.40
2022-09-29T23:18:08.078Z,51.67
2022-09-29T23:20:37.107Z,42.80
2022-09-29T23:23:05.998Z,39.80
2022-09-29T23:25:34.859Z,36.27
2022-09-29T23:28:04.144Z,39.20
2022-09-29T23:30:35.774Z,53.10
2022-09-29T23:33:06.245Z,65.53
2022-09-29T23:35:35.165Z,45.80
2022-09-29T23:38:21.327Z,54.03
2022-09-29T23:40:50.218Z,49.93
2022-09-29T23:43:19.159Z,38.40
2022-09-29T23:45:48.193Z,52.30
2022-09-29T23:48:18.515Z,55.97
2022-09-29T23:50:47.634Z,35.77
2022-09-29T23:53:16.538Z,52.77
2022-09-29T23:55:45.446Z,30.37
2022-09-29T23:58:14.379Z,27.37
